sensor_id;sensor_type;location;lat;lon;timestamp;temperature;humidity
15625;DHT22;7912;51.376;6.126;2024-01-07T00:01:00;5.10;99.90
15625;DHT22;7912;51.376;6.126;2024-01-07T00:03:28;5.10;99.90
15625;DHT22;7912;51.376;6.126;2024-01-07T00:05:56;5.10;99.90
15625;DHT22;7912;51.376;6.126;2024-01-07T00:08:23;5.20;99.90
15625;DHT22;7912;51.376;6.126;2024-01-07T00:10:51;5.20;99.90
15625;DHT22;7912;51.376;6.126;2024-01-07T00:13:20;5.20;99.90
15625;DHT22;7912;51.376;6.126;2024-01-07T00:15:51;5.20;99.90
15625;DHT22;7912;51.376;6.126;2024-01-07T00:18:21;5.20;99.90
15625;DHT22;7912;51.376;6.126;2024-01-07T00:20:49;5.10;99.90
15625;DHT22;7912;51.376;6.126;2024-01-07T00:23:17;5.10;99.90
15625;DHT22;7912;51.376;6.126;2024-01-07T00:25:46;5.10;99.90
15625;DHT22;7912;51.376;6.126;2024-01-07T00:28:15;5.10;99.90
15625;DHT22;7912;51.376;6.126;2024-01-07T00:30:43;5.10;99.90
15625;DHT22;7912;51.376;6.126;2024-01-07T00:33:11;5.10;99.90
15625;DHT22;7912;51.376;6.126;2024-01-07T00:35:43;5.10;99.90
15625;DHT22;7912;51.376;6.126;2024-01-07T00:38:17;5.00;99.90
15625;DHT22;7912;51.376;6.126;2024-01-07T00:40:46;5.00;99.90
15625;DHT22;7912;51.376;6.126;2024-01-07T00:43:14;5.00;99.90
15625;DHT22;7912;51.376;6.126;2024-01-07T00:45:41;5.00;99.90
15625;DHT22;7912;51.376;6.126;2024-01-07T00:48:08;5.00;99.90
15625;DHT22;7912;51.376;6.126;2024-01-07T00:54:18;5.00;99.90
15625;DHT22;7912;51.376;6.126;2024-01-07T00:56:46;5.00;99.90
15625;DHT22;7912;51.376;6.126;2024-01-07T00:59:14;5.00;99.90
15625;DHT22;7912;51.376;6.126;2024-01-07T01:01:41;5.00;99.90
15625;DHT22;7912;51.376;6.126;2024-01-07T01:04:09;5.00;99.90
15625;DHT22;7912;51.376;6.126;2024-01-07T01:06:37;5.00;99.90
15625;DHT22;7912;51.376;6.126;2024-01-07T01:09:04;5.00;99.90
15625;DHT22;7912;51.376;6.126;2024-01-07T01:11:32;5.00;99.90
15625;DHT22;7912;51.376;6.126;2024-01-07T01:14:00;5.00;99.90
15625;DHT22;7912;51.376;6.126;2024-01-07T01:16:27;4.90;99.90
15625;DHT22;7912;51.376;6.126;2024-01-07T01:18:55;5.00;99.90
15625;DHT22;7912;51.376;6.126;2024-01-07T01:21:22;5.00;99.90
15625;DHT22;7912;51.376;6.126;2024-01-07T01:23:50;5.00;99.90
15625;DHT22;7912;51.376;6.126;2024-01-07T01:26:17;5.00;99.90
15625;DHT22;7912;51.376;6.126;2024-01-07T01:28:45;5.00;99.90
15625;DHT22;7912;51.376;6.126;2024-01-07T01:31:13;5.00;99.90
15625;DHT22;7912;51.376;6.126;2024-01-07T01:33:41;5.00;99.90
15625;DHT22;7912;51.376;6.126;2024-01-07T01:36:09;5.00;99.90
15625;DHT22;7912;51.376;6.126;2024-01-07T01:38:38;5.10;99.90
15625;DHT22;7912;51.376;6.126;2024-01-07T01:41:05;5.10;99.90
15625;DHT22;7912;51.376;6.126;2024-01-07T01:43:33;5.10;99.90
15625;DHT22;7912;51.376;6.126;2024-01-07T01:46:02;5.10;99.90
15625;DHT22;7912;51.376;6.126;2024-01-07T01:48:30;5.10;99.90
15625;DHT22;7912;51.376;6.126;2024-01-07T01:50:58;5.10;99.90
15625;DHT22;7912;51.376;6.126;2024-01-07T01:53:26;5.10;99.90
15625;DHT22;7912;51.376;6.126;2024-01-07T01:55:56;5.10;99.90
15625;DHT22;7912;51.376;6.126;2024-01-07T01:58:24;5.10;99.90
15625;DHT22;7912;51.376;6.126;2024-01-07T02:00:54;5.10;99.90
15625;DHT22;7912;51.376;6.126;2024-01-07T02:03:22;5.10;99.90
15625;DHT22;7912;51.376;6.126;2024-01-07T02:05:50;5.10;99.90
15625;DHT22;7912;51.376;6.126;2024-01-07T02:08:19;5.10;99.90
15625;DHT22;7912;51.376;6.126;2024-01-07T02:10:46;5.10;99.90
15625;DHT22;7912;51.376;6.126;2024-01-07T02:13:14;5.20;99.90
15625;DHT22;7912;51.376;6.126;2024-01-07T02:15:43;5.20;99.90
15625;DHT22;7912;51.376;6.126;2024-01-07T02:18:14;5.20;99.90
15625;DHT22;7912;51.376;6.126;2024-01-07T02:20:42;5.10;99.90
15625;DHT22;7912;51.376;6.126;2024-01-07T02:23:09;5.10;99.90
15625;DHT22;7912;51.376;6.126;2024-01-07T02:25:37;5.20;99.90
15625;DHT22;7912;51.376;6.126;2024-01-07T02:28:05;5.10;99.90
15625;DHT22;7912;51.376;6.126;2024-01-07T02:30:33;5.10;99.90
15625;DHT22;7912;51.376;6.126;2024-01-07T02:33:02;5.20;99.90
15625;DHT22;7912;51.376;6.126;2024-01-07T02:35:31;5.10;99.90
15625;DHT22;7912;51.376;6.126;2024-01-07T02:38:02;5.10;99.90
15625;DHT22;7912;51.376;6.126;2024-01-07T02:40:29;5.10;99.90
15625;DHT22;7912;51.376;6.126;2024-01-07T02:42:57;5.10;99.90
15625;DHT22;7912;51.376;6.126;2024-01-07T02:45:25;5.10;99.90
15625;DHT22;7912;51.376;6.126;2024-01-07T02:47:53;5.10;99.90
15625;DHT22;7912;51.376;6.126;2024-01-07T02:50:20;5.10;99.90
15625;DHT22;7912;51.376;6.126;2024-01-07T02:52:48;5.10;99.90
15625;DHT22;7912;51.376;6.126;2024-01-07T02:55:18;5.10;99.90
15625;DHT22;7912;51.376;6.126;2024-01-07T02:57:46;5.10;99.90
15625;DHT22;7912;51.376;6.126;2024-01-07T03:00:14;5.10;99.90
15625;DHT22;7912;51.376;6.126;2024-01-07T03:03:00;5.10;99.90
15625;DHT22;7912;51.376;6.126;2024-01-07T03:05:27;5.00;99.90
15625;DHT22;7912;51.376;6.126;2024-01-07T03:08:00;5.00;99.90
15625;DHT22;7912;51.376;6.126;2024-01-07T03:10:27;5.00;99.90
15625;DHT22;7912;51.376;6.126;2024-01-07T03:12:55;5.00;99.90
15625;DHT22;7912;51.376;6.126;2024-01-07T03:15:22;5.00;99.90
15625;DHT22;7912;51.376;6.126;2024-01-07T03:17:50;5.00;99.90
15625;DHT22;7912;51.376;6.126;2024-01-07T03:20:17;5.00;99.90
15625;DHT22;7912;51.376;6.126;2024-01-07T03:22:44;5.00;99.90
15625;DHT22;7912;51.376;6.126;2024-01-07T03:25:12;4.90;99.90
15625;DHT22;7912;51.376;6.126;2024-01-07T03:27:39;5.00;99.90
15625;DHT22;7912;51.376;6.126;2024-01-07T03:30:07;4.90;99.90
15625;DHT22;7912;51.376;6.126;2024-01-07T03:32:36;4.90;99.90
15625;DHT22;7912;51.376;6.126;2024-01-07T03:35:04;5.00;99.90
15625;DHT22;7912;51.376;6.126;2024-01-07T03:37:31;5.00;99.90
15625;DHT22;7912;51.376;6.126;2024-01-07T03:39:59;4.90;99.90
15625;DHT22;7912;51.376;6.126;2024-01-07T03:42:27;4.90;99.90
15625;DHT22;7912;51.376;6.126;2024-01-07T03:44:54;4.90;99.90
15625;DHT22;7912;51.376;6.126;2024-01-07T03:47:21;4.90;99.90
15625;DHT22;7912;51.376;6.126;2024-01-07T03:49:49;4.90;99.90
15625;DHT22;7912;51.376;6.126;2024-01-07T03:52:16;4.90;99.90
15625;DHT22;7912;51.376;6.126;2024-01-07T03:54:44;4.90;99.90
15625;DHT22;7912;51.376;6.126;2024-01-07T03:57:11;4.90;99.90
15625;DHT22;7912;51.376;6.126;2024-01-07T03:59:39;4.90;99.90
15625;DHT22;7912;51.376;6.126;2024-01-07T04:02:09;4.90;99.90
15625;DHT22;7912;51.376;6.126;2024-01-07T04:04:36;4.90;99.90
15625;DHT22;7912;51.376;6.126;2024-01-07T04:07:04;4.90;99.90
15625;DHT22;7912;51.376;6.126;2024-01-07T04:09:31;4.80;99.90
15625;DHT22;7912;51.376;6.126;2024-01-07T04:11:59;4.80;99.90
15625;DHT22;7912;51.376;6.126;2024-01-07T04:14:26;4.80;99.90
15625;DHT22;7912;51.376;6.126;2024-01-07T04:16:54;4.80;99.90
15625;DHT22;7912;51.376;6.126;2024-01-07T04:19:21;4.80;99.90
15625;DHT22;7912;51.376;6.126;2024-01-07T04:21:49;4.80;99.90
15625;DHT22;7912;51.376;6.126;2024-01-07T04:24:17;4.80;99.90
15625;DHT22;7912;51.376;6.126;2024-01-07T04:26:44;4.80;99.90
15625;DHT22;7912;51.376;6.126;2024-01-07T04:29:11;4.80;99.90
15625;DHT22;7912;51.376;6.126;2024-01-07T04:31:38;4.80;99.90
15625;DHT22;7912;51.376;6.126;2024-01-07T04:34:06;4.80;99.90
15625;DHT22;7912;51.376;6.126;2024-01-07T04:36:33;4.80;99.90
15625;DHT22;7912;51.376;6.126;2024-01-07T04:39:01;4.80;99.90
15625;DHT22;7912;51.376;6.126;2024-01-07T04:41:28;4.80;99.90
15625;DHT22;7912;51.376;6.126;2024-01-07T04:43:56;4.80;99.90
15625;DHT22;7912;51.376;6.126;2024-01-07T04:46:23;4.80;99.90
15625;DHT22;7912;51.376;6.126;2024-01-07T04:48:50;4.80;99.90
15625;DHT22;7912;51.376;6.126;2024-01-07T04:51:18;4.80;99.90
15625;DHT22;7912;51.376;6.126;2024-01-07T04:53:46;4.80;99.90
15625;DHT22;7912;51.376;6.126;2024-01-07T04:56:13;4.70;99.90
15625;DHT22;7912;51.376;6.126;2024-01-07T04:58:41;4.80;99.90
15625;DHT22;7912;51.376;6.126;2024-01-07T05:01:09;4.80;99.90
15625;DHT22;7912;51.376;6.126;2024-01-07T05:03:37;4.70;99.90
15625;DHT22;7912;51.376;6.126;2024-01-07T05:06:07;4.70;99.90
15625;DHT22;7912;51.376;6.126;2024-01-07T05:08:40;4.70;99.90
15625;DHT22;7912;51.376;6.126;2024-01-07T05:11:09;4.70;99.90
15625;DHT22;7912;51.376;6.126;2024-01-07T05:13:36;4.70;99.90
15625;DHT22;7912;51.376;6.126;2024-01-07T05:16:04;4.70;99.90
15625;DHT22;7912;51.376;6.126;2024-01-07T05:18:31;4.70;99.90
15625;DHT22;7912;51.376;6.126;2024-01-07T05:21:02;4.70;99.90
15625;DHT22;7912;51.376;6.126;2024-01-07T05:23:32;4.70;99.90
15625;DHT22;7912;51.376;6.126;2024-01-07T05:26:00;4.60;99.90
15625;DHT22;7912;51.376;6.126;2024-01-07T05:28:28;4.70;99.90
15625;DHT22;7912;51.376;6.126;2024-01-07T05:30:55;4.70;99.90
15625;DHT22;7912;51.376;6.126;2024-01-07T05:33:23;4.60;99.90
15625;DHT22;7912;51.376;6.126;2024-01-07T05:35:51;4.60;99.90
15625;DHT22;7912;51.376;6.126;2024-01-07T05:38:18;4.60;99.90
15625;DHT22;7912;51.376;6.126;2024-01-07T05:40:45;4.60;99.90
15625;DHT22;7912;51.376;6.126;2024-01-07T05:43:13;4.60;99.90
15625;DHT22;7912;51.376;6.126;2024-01-07T05:45:40;4.60;99.90
15625;DHT22;7912;51.376;6.126;2024-01-07T05:48:08;4.60;99.90
15625;DHT22;7912;51.376;6.126;2024-01-07T05:50:35;4.60;99.90
15625;DHT22;7912;51.376;6.126;2024-01-07T05:53:03;4.60;99.90
15625;DHT22;7912;51.376;6.126;2024-01-07T05:55:31;4.60;99.90
15625;DHT22;7912;51.376;6.126;2024-01-07T05:57:58;4.60;99.90
15625;DHT22;7912;51.376;6.126;2024-01-07T06:00:26;4.60;99.90
15625;DHT22;7912;51.376;6.126;2024-01-07T06:02:53;4.60;99.90
15625;DHT22;7912;51.376;6.126;2024-01-07T06:05:20;4.60;99.90
15625;DHT22;7912;51.376;6.126;2024-01-07T06:07:48;4.60;99.90
15625;DHT22;7912;51.376;6.126;2024-01-07T06:10:19;4.50;99.90
15625;DHT22;7912;51.376;6.126;2024-01-07T06:12:47;4.60;99.90
15625;DHT22;7912;51.376;6.126;2024-01-07T06:15:14;4.60;99.90
15625;DHT22;7912;51.376;6.126;2024-01-07T06:17:41;4.60;99.90
15625;DHT22;7912;51.376;6.126;2024-01-07T06:20:09;4.60;99.90
15625;DHT22;7912;51.376;6.126;2024-01-07T06:22:37;4.60;99.90
15625;DHT22;7912;51.376;6.126;2024-01-07T06:25:05;4.60;99.90
15625;DHT22;7912;51.376;6.126;2024-01-07T06:27:33;4.60;99.90
15625;DHT22;7912;51.376;6.126;2024-01-07T06:30:00;4.60;99.90
15625;DHT22;7912;51.376;6.126;2024-01-07T06:32:32;4.60;99.90
15625;DHT22;7912;51.376;6.126;2024-01-07T06:34:59;4.60;99.90
15625;DHT22;7912;51.376;6.126;2024-01-07T06:37:27;4.60;99.90
15625;DHT22;7912;51.376;6.126;2024-01-07T06:39:56;4.60;99.90
15625;DHT22;7912;51.376;6.126;2024-01-07T06:42:25;4.60;99.90
15625;DHT22;7912;51.376;6.126;2024-01-07T06:44:53;4.60;99.90
15625;DHT22;7912;51.376;6.126;2024-01-07T06:47:21;4.50;99.90
15625;DHT22;7912;51.376;6.126;2024-01-07T06:49:53;4.60;99.90
15625;DHT22;7912;51.376;6.126;2024-01-07T06:52:20;4.50;99.90
15625;DHT22;7912;51.376;6.126;2024-01-07T06:54:48;4.50;99.90
15625;DHT22;7912;51.376;6.126;2024-01-07T06:57:16;4.50;99.90
15625;DHT22;7912;51.376;6.126;2024-01-07T06:59:43;4.50;99.90
15625;DHT22;7912;51.376;6.126;2024-01-07T07:02:11;4.50;99.90
15625;DHT22;7912;51.376;6.126;2024-01-07T07:04:38;4.50;99.90
15625;DHT22;7912;51.376;6.126;2024-01-07T07:07:06;4.50;99.90
15625;DHT22;7912;51.376;6.126;2024-01-07T07:09:33;4.50;99.90
15625;DHT22;7912;51.376;6.126;2024-01-07T07:12:01;4.50;99.90
15625;DHT22;7912;51.376;6.126;2024-01-07T07:14:29;4.50;99.90
15625;DHT22;7912;51.376;6.126;2024-01-07T07:16:58;4.50;99.90
15625;DHT22;7912;51.376;6.126;2024-01-07T07:19:26;4.40;99.90
15625;DHT22;7912;51.376;6.126;2024-01-07T07:21:53;4.50;99.90
15625;DHT22;7912;51.376;6.126;2024-01-07T07:24:21;4.40;99.90
15625;DHT22;7912;51.376;6.126;2024-01-07T07:26:49;4.40;99.90
15625;DHT22;7912;51.376;6.126;2024-01-07T07:29:16;4.40;99.90
15625;DHT22;7912;51.376;6.126;2024-01-07T07:31:43;4.40;99.90
15625;DHT22;7912;51.376;6.126;2024-01-07T07:34:12;4.40;99.90
15625;DHT22;7912;51.376;6.126;2024-01-07T07:36:39;4.50;99.90
15625;DHT22;7912;51.376;6.126;2024-01-07T07:39:08;4.50;99.90
15625;DHT22;7912;51.376;6.126;2024-01-07T07:41:37;4.50;99.90
15625;DHT22;7912;51.376;6.126;2024-01-07T07:44:04;4.40;99.90
15625;DHT22;7912;51.376;6.126;2024-01-07T07:46:32;4.40;99.90
15625;DHT22;7912;51.376;6.126;2024-01-07T07:48:59;4.40;99.90
15625;DHT22;7912;51.376;6.126;2024-01-07T07:51:28;4.40;99.90
15625;DHT22;7912;51.376;6.126;2024-01-07T07:53:56;4.40;99.90
15625;DHT22;7912;51.376;6.126;2024-01-07T07:56:24;4.40;99.90
15625;DHT22;7912;51.376;6.126;2024-01-07T08:01:58;4.40;99.90
15625;DHT22;7912;51.376;6.126;2024-01-07T08:04:26;4.40;99.90
15625;DHT22;7912;51.376;6.126;2024-01-07T08:06:54;4.40;99.90
15625;DHT22;7912;51.376;6.126;2024-01-07T08:09:23;4.40;99.90
15625;DHT22;7912;51.376;6.126;2024-01-07T08:11:52;4.40;99.90
15625;DHT22;7912;51.376;6.126;2024-01-07T08:14:19;4.40;99.90
15625;DHT22;7912;51.376;6.126;2024-01-07T08:16:47;4.40;99.90
15625;DHT22;7912;51.376;6.126;2024-01-07T08:19:14;4.40;99.90
15625;DHT22;7912;51.376;6.126;2024-01-07T08:21:42;4.30;99.90
15625;DHT22;7912;51.376;6.126;2024-01-07T08:24:10;4.30;99.90
15625;DHT22;7912;51.376;6.126;2024-01-07T08:26:38;4.40;99.90
15625;DHT22;7912;51.376;6.126;2024-01-07T08:29:05;4.40;99.90
15625;DHT22;7912;51.376;6.126;2024-01-07T08:31:33;4.30;99.90
15625;DHT22;7912;51.376;6.126;2024-01-07T08:34:00;4.30;99.90
15625;DHT22;7912;51.376;6.126;2024-01-07T08:36:28;4.30;99.90
15625;DHT22;7912;51.376;6.126;2024-01-07T08:38:56;4.30;99.90
15625;DHT22;7912;51.376;6.126;2024-01-07T08:41:23;4.30;99.90
15625;DHT22;7912;51.376;6.126;2024-01-07T08:43:51;4.30;99.90
15625;DHT22;7912;51.376;6.126;2024-01-07T08:46:22;4.30;99.90
15625;DHT22;7912;51.376;6.126;2024-01-07T08:48:49;4.30;99.90
15625;DHT22;7912;51.376;6.126;2024-01-07T08:51:19;4.30;99.90
15625;DHT22;7912;51.376;6.126;2024-01-07T08:53:47;4.30;99.90
15625;DHT22;7912;51.376;6.126;2024-01-07T08:56:16;4.30;99.90
15625;DHT22;7912;51.376;6.126;2024-01-07T08:58:44;4.30;99.90
15625;DHT22;7912;51.376;6.126;2024-01-07T09:01:11;4.30;99.90
15625;DHT22;7912;51.376;6.126;2024-01-07T09:03:41;4.30;99.90
15625;DHT22;7912;51.376;6.126;2024-01-07T09:06:09;4.30;99.90
15625;DHT22;7912;51.376;6.126;2024-01-07T09:08:36;4.30;99.90
15625;DHT22;7912;51.376;6.126;2024-01-07T09:11:04;4.30;99.90
15625;DHT22;7912;51.376;6.126;2024-01-07T09:13:33;4.30;99.90
15625;DHT22;7912;51.376;6.126;2024-01-07T09:16:00;4.30;99.90
15625;DHT22;7912;51.376;6.126;2024-01-07T09:18:28;4.30;99.90
15625;DHT22;7912;51.376;6.126;2024-01-07T09:20:56;4.30;99.90
15625;DHT22;7912;51.376;6.126;2024-01-07T09:23:23;4.30;99.90
15625;DHT22;7912;51.376;6.126;2024-01-07T09:25:51;4.30;99.90
15625;DHT22;7912;51.376;6.126;2024-01-07T09:28:18;4.30;99.90
15625;DHT22;7912;51.376;6.126;2024-01-07T09:30:48;4.30;99.90
15625;DHT22;7912;51.376;6.126;2024-01-07T09:33:16;4.30;99.90
15625;DHT22;7912;51.376;6.126;2024-01-07T09:35:44;4.30;99.90
15625;DHT22;7912;51.376;6.126;2024-01-07T09:38:12;4.30;99.90
15625;DHT22;7912;51.376;6.126;2024-01-07T09:40:44;4.30;99.90
15625;DHT22;7912;51.376;6.126;2024-01-07T09:43:12;4.30;99.90
15625;DHT22;7912;51.376;6.126;2024-01-07T09:45:42;4.30;99.90
15625;DHT22;7912;51.376;6.126;2024-01-07T09:48:14;4.30;99.90
15625;DHT22;7912;51.376;6.126;2024-01-07T09:50:42;4.30;99.90
15625;DHT22;7912;51.376;6.126;2024-01-07T09:53:15;4.30;99.90
15625;DHT22;7912;51.376;6.126;2024-01-07T09:55:52;4.30;99.90
15625;DHT22;7912;51.376;6.126;2024-01-07T09:58:35;4.30;99.90
15625;DHT22;7912;51.376;6.126;2024-01-07T10:01:04;4.30;99.90
15625;DHT22;7912;51.376;6.126;2024-01-07T10:03:33;4.30;99.90
15625;DHT22;7912;51.376;6.126;2024-01-07T10:06:01;4.30;99.90
15625;DHT22;7912;51.376;6.126;2024-01-07T10:08:29;4.30;99.90
15625;DHT22;7912;51.376;6.126;2024-01-07T10:10:57;4.20;99.90
15625;DHT22;7912;51.376;6.126;2024-01-07T10:13:27;4.20;99.90
15625;DHT22;7912;51.376;6.126;2024-01-07T10:15:55;4.30;99.90
15625;DHT22;7912;51.376;6.126;2024-01-07T10:18:23;4.20;99.90
15625;DHT22;7912;51.376;6.126;2024-01-07T10:20:53;4.30;99.90
15625;DHT22;7912;51.376;6.126;2024-01-07T10:23:22;4.30;99.90
15625;DHT22;7912;51.376;6.126;2024-01-07T10:25:49;4.30;99.90
15625;DHT22;7912;51.376;6.126;2024-01-07T10:28:17;4.30;99.90
15625;DHT22;7912;51.376;6.126;2024-01-07T10:30:50;4.30;99.90
15625;DHT22;7912;51.376;6.126;2024-01-07T10:33:18;4.20;99.90
15625;DHT22;7912;51.376;6.126;2024-01-07T10:35:55;4.20;99.90
15625;DHT22;7912;51.376;6.126;2024-01-07T10:38:29;4.20;99.90
15625;DHT22;7912;51.376;6.126;2024-01-07T10:41:05;4.20;99.90
15625;DHT22;7912;51.376;6.126;2024-01-07T10:43:36;4.20;99.90
15625;DHT22;7912;51.376;6.126;2024-01-07T10:46:09;4.20;99.90
15625;DHT22;7912;51.376;6.126;2024-01-07T10:49:17;4.20;99.90
15625;DHT22;7912;51.376;6.126;2024-01-07T10:51:56;4.20;99.90
15625;DHT22;7912;51.376;6.126;2024-01-07T10:54:35;4.20;99.90
15625;DHT22;7912;51.376;6.126;2024-01-07T11:00:10;4.20;99.90
15625;DHT22;7912;51.376;6.126;2024-01-07T11:03:14;4.20;99.90
15625;DHT22;7912;51.376;6.126;2024-01-07T11:05:54;4.20;99.90
15625;DHT22;7912;51.376;6.126;2024-01-07T11:08:58;4.20;99.90
15625;DHT22;7912;51.376;6.126;2024-01-07T11:11:36;4.20;99.90
15625;DHT22;7912;51.376;6.126;2024-01-07T11:14:37;4.20;99.90
15625;DHT22;7912;51.376;6.126;2024-01-07T11:17:07;4.20;99.90
15625;DHT22;7912;51.376;6.126;2024-01-07T11:19:38;4.20;99.90
15625;DHT22;7912;51.376;6.126;2024-01-07T11:25:01;4.20;99.90
15625;DHT22;7912;51.376;6.126;2024-01-07T11:27:29;4.20;99.90
15625;DHT22;7912;51.376;6.126;2024-01-07T11:30:17;4.20;99.90
15625;DHT22;7912;51.376;6.126;2024-01-07T11:32:46;4.20;99.90
15625;DHT22;7912;51.376;6.126;2024-01-07T11:38:25;4.20;99.90
15625;DHT22;7912;51.376;6.126;2024-01-07T11:40:55;4.20;99.90
15625;DHT22;7912;51.376;6.126;2024-01-07T11:43:23;4.20;99.90
15625;DHT22;7912;51.376;6.126;2024-01-07T11:45:53;4.20;99.90
15625;DHT22;7912;51.376;6.126;2024-01-07T11:48:25;4.20;99.90
15625;DHT22;7912;51.376;6.126;2024-01-07T11:50:53;4.10;99.90
15625;DHT22;7912;51.376;6.126;2024-01-07T11:53:22;4.10;99.90
15625;DHT22;7912;51.376;6.126;2024-01-07T11:55:50;4.20;99.90
15625;DHT22;7912;51.376;6.126;2024-01-07T11:58:18;4.20;99.90
15625;DHT22;7912;51.376;6.126;2024-01-07T12:00:46;4.20;99.90
15625;DHT22;7912;51.376;6.126;2024-01-07T12:03:13;4.20;99.90
15625;DHT22;7912;51.376;6.126;2024-01-07T12:05:42;4.20;99.90
15625;DHT22;7912;51.376;6.126;2024-01-07T12:08:10;4.20;99.90
15625;DHT22;7912;51.376;6.126;2024-01-07T12:10:38;4.20;99.90
15625;DHT22;7912;51.376;6.126;2024-01-07T12:13:05;4.20;99.90
15625;DHT22;7912;51.376;6.126;2024-01-07T12:15:33;4.20;99.90
15625;DHT22;7912;51.376;6.126;2024-01-07T12:18:01;4.20;99.90
15625;DHT22;7912;51.376;6.126;2024-01-07T12:20:32;4.20;99.90
15625;DHT22;7912;51.376;6.126;2024-01-07T12:23:08;4.20;99.90
15625;DHT22;7912;51.376;6.126;2024-01-07T12:25:37;4.20;99.90
15625;DHT22;7912;51.376;6.126;2024-01-07T12:28:07;4.20;99.90
15625;DHT22;7912;51.376;6.126;2024-01-07T12:30:37;4.20;99.90
15625;DHT22;7912;51.376;6.126;2024-01-07T12:33:06;4.10;99.90
15625;DHT22;7912;51.376;6.126;2024-01-07T12:35:34;4.20;99.90
15625;DHT22;7912;51.376;6.126;2024-01-07T12:38:02;4.10;99.90
15625;DHT22;7912;51.376;6.126;2024-01-07T12:40:31;4.10;99.90
15625;DHT22;7912;51.376;6.126;2024-01-07T12:42:59;4.10;99.90
15625;DHT22;7912;51.376;6.126;2024-01-07T12:45:46;4.10;99.90
15625;DHT22;7912;51.376;6.126;2024-01-07T12:48:35;4.10;99.90
15625;DHT22;7912;51.376;6.126;2024-01-07T12:51:03;4.00;99.90
15625;DHT22;7912;51.376;6.126;2024-01-07T12:53:31;4.00;99.90
15625;DHT22;7912;51.376;6.126;2024-01-07T12:55:58;4.10;99.90
15625;DHT22;7912;51.376;6.126;2024-01-07T12:58:26;4.00;99.90
15625;DHT22;7912;51.376;6.126;2024-01-07T13:00:54;4.00;99.90
15625;DHT22;7912;51.376;6.126;2024-01-07T13:03:21;4.00;99.90
15625;DHT22;7912;51.376;6.126;2024-01-07T13:05:52;4.00;99.90
15625;DHT22;7912;51.376;6.126;2024-01-07T13:08:20;4.00;99.90
15625;DHT22;7912;51.376;6.126;2024-01-07T13:10:49;4.00;99.90
15625;DHT22;7912;51.376;6.126;2024-01-07T13:13:17;4.00;99.90
15625;DHT22;7912;51.376;6.126;2024-01-07T13:15:44;4.00;99.90
15625;DHT22;7912;51.376;6.126;2024-01-07T13:18:12;4.00;99.90
15625;DHT22;7912;51.376;6.126;2024-01-07T13:20:40;4.00;99.90
15625;DHT22;7912;51.376;6.126;2024-01-07T13:23:07;4.00;99.90
15625;DHT22;7912;51.376;6.126;2024-01-07T13:25:35;3.90;99.90
15625;DHT22;7912;51.376;6.126;2024-01-07T13:28:02;3.90;99.90
15625;DHT22;7912;51.376;6.126;2024-01-07T13:30:30;3.90;99.90
15625;DHT22;7912;51.376;6.126;2024-01-07T13:32:58;3.90;99.90
15625;DHT22;7912;51.376;6.126;2024-01-07T13:35:28;3.90;99.90
15625;DHT22;7912;51.376;6.126;2024-01-07T13:37:56;3.80;99.90
15625;DHT22;7912;51.376;6.126;2024-01-07T13:40:24;3.80;99.90
15625;DHT22;7912;51.376;6.126;2024-01-07T13:42:51;3.80;99.90
15625;DHT22;7912;51.376;6.126;2024-01-07T13:45:20;3.80;99.90
15625;DHT22;7912;51.376;6.126;2024-01-07T13:47:50;3.80;99.90
15625;DHT22;7912;51.376;6.126;2024-01-07T13:53:24;3.80;99.90
15625;DHT22;7912;51.376;6.126;2024-01-07T13:55:52;3.80;99.90
15625;DHT22;7912;51.376;6.126;2024-01-07T13:58:22;3.70;99.90
15625;DHT22;7912;51.376;6.126;2024-01-07T14:00:50;3.70;99.90
15625;DHT22;7912;51.376;6.126;2024-01-07T14:03:19;3.70;99.90
15625;DHT22;7912;51.376;6.126;2024-01-07T14:05:47;3.70;99.90
15625;DHT22;7912;51.376;6.126;2024-01-07T14:08:15;3.70;99.90
15625;DHT22;7912;51.376;6.126;2024-01-07T14:10:43;3.70;99.90
15625;DHT22;7912;51.376;6.126;2024-01-07T14:13:10;3.70;99.90
15625;DHT22;7912;51.376;6.126;2024-01-07T14:15:38;3.70;99.90
15625;DHT22;7912;51.376;6.126;2024-01-07T14:18:06;3.70;99.90
15625;DHT22;7912;51.376;6.126;2024-01-07T14:20:35;3.70;99.90
15625;DHT22;7912;51.376;6.126;2024-01-07T14:23:04;3.70;99.90
15625;DHT22;7912;51.376;6.126;2024-01-07T14:25:31;3.70;99.90
15625;DHT22;7912;51.376;6.126;2024-01-07T14:28:00;3.60;99.90
15625;DHT22;7912;51.376;6.126;2024-01-07T14:30:28;3.60;99.90
15625;DHT22;7912;51.376;6.126;2024-01-07T14:32:56;3.50;99.90
15625;DHT22;7912;51.376;6.126;2024-01-07T14:35:25;3.50;99.90
15625;DHT22;7912;51.376;6.126;2024-01-07T14:37:55;3.50;99.90
15625;DHT22;7912;51.376;6.126;2024-01-07T14:40:28;3.50;99.90
15625;DHT22;7912;51.376;6.126;2024-01-07T14:42:56;3.50;99.90
15625;DHT22;7912;51.376;6.126;2024-01-07T14:45:26;3.50;99.90
15625;DHT22;7912;51.376;6.126;2024-01-07T14:47:54;3.40;99.90
15625;DHT22;7912;51.376;6.126;2024-01-07T14:50:22;3.40;99.90
15625;DHT22;7912;51.376;6.126;2024-01-07T14:53:02;3.40;99.90
15625;DHT22;7912;51.376;6.126;2024-01-07T14:55:30;3.40;99.90
15625;DHT22;7912;51.376;6.126;2024-01-07T14:57:58;3.40;99.90
15625;DHT22;7912;51.376;6.126;2024-01-07T15:00:28;3.40;99.90
15625;DHT22;7912;51.376;6.126;2024-01-07T15:03:15;3.40;99.90
15625;DHT22;7912;51.376;6.126;2024-01-07T15:05:43;3.40;99.90
15625;DHT22;7912;51.376;6.126;2024-01-07T15:08:11;3.40;99.90
15625;DHT22;7912;51.376;6.126;2024-01-07T15:10:41;3.30;99.90
15625;DHT22;7912;51.376;6.126;2024-01-07T15:13:11;3.30;99.90
15625;DHT22;7912;51.376;6.126;2024-01-07T15:15:46;3.30;99.90
15625;DHT22;7912;51.376;6.126;2024-01-07T15:18:13;3.20;99.90
15625;DHT22;7912;51.376;6.126;2024-01-07T15:20:41;3.20;99.90
15625;DHT22;7912;51.376;6.126;2024-01-07T15:23:08;3.20;99.90
15625;DHT22;7912;51.376;6.126;2024-01-07T15:25:35;3.20;99.90
15625;DHT22;7912;51.376;6.126;2024-01-07T15:28:04;3.20;99.90
15625;DHT22;7912;51.376;6.126;2024-01-07T15:30:32;3.20;99.90
15625;DHT22;7912;51.376;6.126;2024-01-07T15:33:03;3.20;99.90
15625;DHT22;7912;51.376;6.126;2024-01-07T15:35:31;3.20;99.90
15625;DHT22;7912;51.376;6.126;2024-01-07T15:38:00;3.20;99.90
15625;DHT22;7912;51.376;6.126;2024-01-07T15:40:27;3.20;99.90
15625;DHT22;7912;51.376;6.126;2024-01-07T15:42:56;3.20;99.90
15625;DHT22;7912;51.376;6.126;2024-01-07T15:45:26;3.20;99.90
15625;DHT22;7912;51.376;6.126;2024-01-07T15:47:54;3.20;99.90
15625;DHT22;7912;51.376;6.126;2024-01-07T15:50:21;3.20;99.90
15625;DHT22;7912;51.376;6.126;2024-01-07T15:52:49;3.20;99.90
15625;DHT22;7912;51.376;6.126;2024-01-07T15:55:17;3.20;99.90
15625;DHT22;7912;51.376;6.126;2024-01-07T15:57:45;3.20;99.90
15625;DHT22;7912;51.376;6.126;2024-01-07T16:00:13;3.20;99.90
15625;DHT22;7912;51.376;6.126;2024-01-07T16:02:41;3.20;99.90
15625;DHT22;7912;51.376;6.126;2024-01-07T16:05:11;3.20;99.90
15625;DHT22;7912;51.376;6.126;2024-01-07T16:07:41;3.20;99.90
15625;DHT22;7912;51.376;6.126;2024-01-07T16:10:09;3.20;99.90
15625;DHT22;7912;51.376;6.126;2024-01-07T16:12:38;3.20;99.90
15625;DHT22;7912;51.376;6.126;2024-01-07T16:15:11;3.20;99.90
15625;DHT22;7912;51.376;6.126;2024-01-07T16:17:41;3.20;99.90
15625;DHT22;7912;51.376;6.126;2024-01-07T16:20:15;3.20;99.90
15625;DHT22;7912;51.376;6.126;2024-01-07T16:22:44;3.30;99.90
15625;DHT22;7912;51.376;6.126;2024-01-07T16:25:15;3.30;99.90
15625;DHT22;7912;51.376;6.126;2024-01-07T16:27:52;3.30;99.90
15625;DHT22;7912;51.376;6.126;2024-01-07T16:30:26;3.30;99.90
15625;DHT22;7912;51.376;6.126;2024-01-07T16:32:54;3.30;99.90